Time;durP1;ratioP1;P1;durP2;ratioP2;P2;SDS_P1;SDS_P2;PMS_P1;PMS_P2;Temp;Humidity;BMP_temperature;BMP_pressure;BME280_temperature;BME280_humidity;BME280_pressure;Samples;Min_cycle;Max_cycle;Signal;HPM_P1;HPM_P2
2023/01/30 00:01:16;;;;;;;16.77;7.63;;;5.50;91.60;;;;;;4946192;28;20203;-77
2023/01/30 00:03:44;;;;;;;14.00;6.30;;;5.50;91.60;;;;;;4988271;28;20601;-79
2023/01/30 00:06:15;;;;;;;13.07;6.33;;;5.40;91.60;;;;;;4986980;28;20284;-78
2023/01/30 00:08:43;;;;;;;12.80;6.87;;;5.40;91.60;;;;;;4986154;28;20194;-78
2023/01/30 00:11:14;;;;;;;16.80;7.50;;;5.40;91.60;;;;;;4983225;28;20267;-79
2023/01/30 00:13:43;;;;;;;16.90;7.40;;;5.40;91.50;;;;;;4981734;28;20196;-78
2023/01/30 00:16:12;;;;;;;16.90;7.03;;;5.40;91.60;;;;;;4981518;28;20232;-77
2023/01/30 00:18:43;;;;;;;15.17;7.40;;;5.30;91.60;;;;;;4979244;28;20654;-78
2023/01/30 00:21:14;;;;;;;13.47;6.53;;;5.30;91.70;;;;;;4987092;28;20197;-79
2023/01/30 00:23:45;;;;;;;14.20;6.40;;;5.40;91.70;;;;;;4984106;28;20193;-77
2023/01/30 00:26:13;;;;;;;14.43;6.93;;;5.30;91.70;;;;;;4986509;28;20766;-77
2023/01/30 00:28:42;;;;;;;15.30;7.17;;;5.40;91.70;;;;;;4984734;28;20232;-77
2023/01/30 00:31:10;;;;;;;15.57;7.97;;;5.40;91.70;;;;;;4981327;28;20202;-77
2023/01/30 00:33:39;;;;;;;19.23;7.47;;;5.30;91.60;;;;;;4980650;28;20233;-78
2023/01/30 00:36:08;;;;;;;15.03;6.80;;;5.30;91.60;;;;;;4988439;28;20547;-77
2023/01/30 00:38:36;;;;;;;15.87;7.13;;;5.30;91.60;;;;;;4983882;28;20255;-77
2023/01/30 00:41:06;;;;;;;15.37;6.80;;;5.30;91.60;;;;;;4985504;28;20283;-77
2023/01/30 00:49:12;;;;;;;15.53;6.97;;;5.30;91.70;;;;;;4985337;28;20210;-77
2023/01/30 00:51:41;;;;;;;12.10;5.90;;;5.40;91.60;;;;;;4993305;28;20634;-77
2023/01/30 00:54:09;;;;;;;12.17;5.53;;;5.40;91.60;;;;;;4984334;28;20358;-78
2023/01/30 00:56:39;;;;;;;12.43;6.60;;;5.40;91.50;;;;;;4989992;28;20225;-77
2023/01/30 00:59:07;;;;;;;14.63;6.93;;;5.40;91.50;;;;;;4986999;28;20292;-77
2023/01/30 01:01:37;;;;;;;11.63;6.03;;;5.40;91.40;;;;;;4983459;28;20209;-77
2023/01/30 01:04:07;;;;;;;14.93;6.20;;;5.40;91.40;;;;;;4981062;28;20229;-77
2023/01/30 01:06:36;;;;;;;13.43;6.30;;;5.40;91.30;;;;;;4988188;28;20653;-77
2023/01/30 01:09:05;;;;;;;11.87;5.70;;;5.40;91.30;;;;;;4986020;28;20246;-77
2023/01/30 01:11:34;;;;;;;13.33;6.80;;;5.40;91.20;;;;;;4989598;28;20251;-77
2023/01/30 01:14:05;;;;;;;15.00;6.43;;;5.40;91.30;;;;;;4980077;28;20197;-78
2023/01/30 01:16:34;;;;;;;10.90;5.83;;;5.40;91.20;;;;;;4976879;28;20209;-77
2023/01/30 01:19:03;;;;;;;12.17;6.73;;;5.40;91.20;;;;;;4985475;28;20195;-78
2023/01/30 01:21:31;;;;;;;14.97;5.87;;;5.40;91.20;;;;;;4988166;28;20213;-77
2023/01/30 01:24:01;;;;;;;12.30;6.03;;;5.40;91.20;;;;;;4992041;28;20197;-78
2023/01/30 01:26:29;;;;;;;14.50;6.87;;;5.40;91.10;;;;;;4985447;28;20206;-77
2023/01/30 01:28:58;;;;;;;14.47;6.40;;;5.40;91.10;;;;;;4991137;28;20228;-80
2023/01/30 01:31:28;;;;;;;13.60;6.00;;;5.40;91.10;;;;;;4988788;28;20198;-77
2023/01/30 01:33:56;;;;;;;12.97;5.60;;;5.40;90.90;;;;;;4989019;28;20284;-77
2023/01/30 01:36:25;;;;;;;14.57;7.47;;;5.40;90.80;;;;;;4984325;28;20473;-77
2023/01/30 01:39:13;;;;;;;11.50;5.77;;;5.40;91.00;;;;;;4987282;28;20647;-78
2023/01/30 01:41:40;;;;;;;13.07;6.07;;;5.40;91.00;;;;;;4989429;28;20631;-78
2023/01/30 01:44:10;;;;;;;12.93;5.20;;;5.40;90.90;;;;;;4989503;28;20219;-78
2023/01/30 01:46:46;;;;;;;12.47;5.23;;;5.40;90.90;;;;;;4987302;28;20211;-79
2023/01/30 01:49:18;;;;;;;11.53;5.77;;;5.40;90.70;;;;;;4986765;28;20447;-77
2023/01/30 01:51:52;;;;;;;9.47;4.60;;;5.40;90.70;;;;;;4990041;28;20449;-77
2023/01/30 01:54:25;;;;;;;11.33;4.77;;;5.40;90.60;;;;;;4981290;28;20198;-77
2023/01/30 01:56:54;;;;;;;8.40;4.50;;;5.40;90.30;;;;;;4983852;28;20233;-77
2023/01/30 01:59:27;;;;;;;9.75;4.63;;;5.40;90.20;;;;;;4985488;28;20494;-78
2023/01/30 02:02:00;;;;;;;8.47;3.87;;;5.40;90.30;;;;;;4977633;28;20301;-78
2023/01/30 02:07:20;;;;;;;9.77;4.63;;;5.40;89.70;;;;;;4985247;28;20720;-79
2023/01/30 02:09:49;;;;;;;8.33;3.67;;;5.40;89.60;;;;;;4985809;28;20234;-78
2023/01/30 02:12:17;;;;;;;10.57;4.97;;;5.30;89.50;;;;;;4984055;28;20850;-77
2023/01/30 02:14:47;;;;;;;9.57;3.53;;;5.30;89.80;;;;;;4978694;28;20655;-79
2023/01/30 02:17:16;;;;;;;7.30;3.53;;;5.30;89.80;;;;;;4980876;28;20198;-78
2023/01/30 02:19:50;;;;;;;9.83;3.77;;;5.30;89.40;;;;;;4988438;28;20344;-77
2023/01/30 02:22:56;;;;;;;9.83;3.80;;;5.30;89.20;;;;;;4983608;28;20205;-77
2023/01/30 02:26:04;;;;;;;9.37;4.43;;;5.30;89.30;;;;;;4989494;28;20189;-77
2023/01/30 02:29:04;;;;;;;6.77;3.17;;;5.40;89.20;;;;;;4974436;28;20256;-78
2023/01/30 02:31:40;;;;;;;10.27;3.63;;;5.40;89.20;;;;;;4967988;28;20204;-77
2023/01/30 02:34:22;;;;;;;8.17;3.67;;;5.30;88.60;;;;;;4990592;28;20213;-78
2023/01/30 02:37:01;;;;;;;7.97;4.13;;;5.30;88.60;;;;;;4983330;28;20484;-77
2023/01/30 02:39:41;;;;;;;8.60;3.80;;;5.30;89.00;;;;;;4986004;28;20365;-78
2023/01/30 02:42:17;;;;;;;6.30;3.00;;;5.30;88.80;;;;;;4984914;28;20256;-78
2023/01/30 02:44:54;;;;;;;6.83;3.20;;;5.30;88.50;;;;;;4984022;28;20253;-77
2023/01/30 02:47:29;;;;;;;9.25;4.28;;;5.30;87.90;;;;;;4987337;28;20455;-77
2023/01/30 02:50:04;;;;;;;9.43;3.67;;;5.30;88.10;;;;;;4988187;28;20258;-79
2023/01/30 02:52:33;;;;;;;9.20;3.90;;;5.30;87.90;;;;;;4984838;28;20190;-77
2023/01/30 02:55:06;;;;;;;7.67;3.13;;;5.20;87.90;;;;;;4980338;28;20201;-78
2023/01/30 02:57:34;;;;;;;8.17;3.83;;;5.20;87.20;;;;;;4985275;28;20237;-78
2023/01/30 03:00:06;;;;;;;8.73;3.60;;;5.20;86.90;;;;;;4982937;28;20209;-77
2023/01/30 03:03:06;;;;;;;7.60;3.17;;;5.20;86.70;;;;;;4981240;28;20256;-77
2023/01/30 03:05:48;;;;;;;11.07;3.83;;;5.20;86.80;;;;;;4982429;28;20193;-77
2023/01/30 03:08:24;;;;;;;9.73;3.73;;;5.20;86.80;;;;;;4986036;28;20213;-79
2023/01/30 03:10:58;;;;;;;9.40;3.70;;;5.20;86.90;;;;;;4985174;28;21198;-78
2023/01/30 03:13:37;;;;;;;7.10;3.33;;;5.20;87.00;;;;;;4986327;28;20685;-79
2023/01/30 03:16:10;;;;;;;5.17;2.70;;;5.10;86.90;;;;;;4980741;28;20197;-78
2023/01/30 03:18:43;;;;;;;5.90;2.70;;;5.10;86.30;;;;;;4979224;28;20608;-78
2023/01/30 03:21:12;;;;;;;6.47;3.40;;;5.10;86.70;;;;;;4978609;28;20255;-77
2023/01/30 03:23:40;;;;;;;8.18;3.75;;;5.10;86.70;;;;;;4987985;28;20842;-77
2023/01/30 03:26:18;;;;;;;7.33;3.23;;;5.10;87.10;;;;;;4984781;28;20236;-78
2023/01/30 03:28:49;;;;;;;7.37;3.13;;;5.10;87.20;;;;;;4984848;28;20250;-77
2023/01/30 03:31:17;;;;;;;5.93;3.03;;;5.10;86.90;;;;;;4984750;28;20263;-79
2023/01/30 03:33:47;;;;;;;6.67;3.00;;;5.10;86.80;;;;;;4987780;28;20624;-78
2023/01/30 03:36:16;;;;;;;4.93;2.23;;;5.10;86.70;;;;;;4988365;28;20232;-78
2023/01/30 03:38:44;;;;;;;7.73;3.20;;;5.10;86.70;;;;;;4982191;28;20712;-78
2023/01/30 03:41:12;;;;;;;9.70;3.67;;;5.10;86.70;;;;;;4983387;28;20260;-78
2023/01/30 03:43:41;;;;;;;9.03;3.10;;;5.10;86.40;;;;;;4981303;28;20243;-78
2023/01/30 03:46:09;;;;;;;7.70;3.22;;;5.10;85.80;;;;;;4981412;28;20459;-78
2023/01/30 03:48:37;;;;;;;6.27;2.77;;;5.10;86.10;;;;;;4994636;28;20263;-78
2023/01/30 03:51:07;;;;;;;7.47;3.03;;;5.00;86.00;;;;;;4982839;28;20832;-78
2023/01/30 03:53:36;;;;;;;6.43;2.87;;;5.00;86.00;;;;;;4984254;28;20193;-79
2023/01/30 03:56:04;;;;;;;6.30;2.57;;;5.00;86.30;;;;;;4982477;28;20305;-78
2023/01/30 03:58:33;;;;;;;7.40;3.13;;;5.00;86.30;;;;;;4988747;28;20193;-78
2023/01/30 04:01:01;;;;;;;8.00;3.23;;;5.00;86.70;;;;;;4986398;28;20709;-78
2023/01/30 04:03:29;;;;;;;6.67;3.20;;;5.00;86.70;;;;;;4984993;28;20198;-78
2023/01/30 04:05:58;;;;;;;8.93;3.83;;;5.00;86.70;;;;;;4979655;28;20252;-78
2023/01/30 04:08:27;;;;;;;7.93;3.73;;;5.00;86.90;;;;;;4976147;28;20217;-79
2023/01/30 04:10:56;;;;;;;7.00;3.27;;;5.00;87.00;;;;;;4982941;28;20696;-78
2023/01/30 04:13:24;;;;;;;7.60;3.47;;;5.00;86.90;;;;;;4976873;28;20201;-78
2023/01/30 04:16:15;;;;;;;8.20;3.77;;;4.90;86.90;;;;;;4983105;28;20229;-79
2023/01/30 04:18:43;;;;;;;11.33;3.80;;;5.00;87.20;;;;;;4977158;28;20212;-78
2023/01/30 04:21:12;;;;;;;10.23;3.93;;;5.00;87.30;;;;;;4979171;28;20453;-78
2023/01/30 04:23:42;;;;;;;7.53;3.43;;;5.00;87.30;;;;;;4983320;28;20216;-79
2023/01/30 04:26:12;;;;;;;10.37;4.07;;;5.00;87.50;;;;;;4979206;28;20205;-78
2023/01/30 04:28:41;;;;;;;10.17;4.03;;;5.00;87.50;;;;;;4984224;28;20209;-78
2023/01/30 04:31:10;;;;;;;9.10;3.00;;;5.00;87.40;;;;;;4985455;28;20260;-79
2023/01/30 04:33:39;;;;;;;8.37;3.97;;;5.00;87.40;;;;;;4983942;28;20201;-78
2023/01/30 04:36:09;;;;;;;8.67;3.93;;;5.00;87.50;;;;;;4980453;28;20208;-78
2023/01/30 04:38:38;;;;;;;9.97;4.40;;;5.00;87.70;;;;;;4984774;28;20647;-78
2023/01/30 04:41:07;;;;;;;8.13;3.97;;;5.10;87.80;;;;;;4980697;28;20193;-79
2023/01/30 04:43:36;;;;;;;13.63;5.20;;;5.10;87.80;;;;;;4982928;28;20205;-78
2023/01/30 04:46:04;;;;;;;11.40;4.93;;;5.10;87.80;;;;;;4982744;28;20517;-79
2023/01/30 04:48:33;;;;;;;12.03;5.30;;;5.10;87.90;;;;;;4976505;28;20260;-78
2023/01/30 04:51:01;;;;;;;11.53;5.00;;;5.10;88.10;;;;;;4979440;28;20287;-79
2023/01/30 04:53:29;;;;;;;11.00;5.10;;;5.10;88.20;;;;;;4985889;28;20260;-79
2023/01/30 04:55:58;;;;;;;15.33;5.70;;;5.10;88.30;;;;;;4987851;28;20706;-79
2023/01/30 04:58:27;;;;;;;12.40;5.57;;;5.10;88.30;;;;;;4977929;28;20536;-78
2023/01/30 05:00:56;;;;;;;16.30;5.67;;;5.10;88.30;;;;;;4977753;28;20220;-78
2023/01/30 05:03:24;;;;;;;9.33;4.50;;;5.10;88.60;;;;;;4985213;28;20193;-78
2023/01/30 05:05:53;;;;;;;11.03;5.37;;;5.10;88.80;;;;;;4973381;28;20228;-79
2023/01/30 05:08:21;;;;;;;12.20;5.30;;;5.10;88.70;;;;;;4978244;28;20204;-79
2023/01/30 05:10:49;;;;;;;12.97;6.00;;;5.10;88.70;;;;;;4979821;28;20458;-80
2023/01/30 05:13:17;;;;;;;11.13;4.60;;;5.10;88.70;;;;;;4973426;28;20521;-78
2023/01/30 05:15:47;;;;;;;17.50;6.43;;;5.10;88.80;;;;;;4972954;28;20205;-78
2023/01/30 05:18:15;;;;;;;13.40;5.63;;;5.10;88.90;;;;;;4977319;28;20616;-78
2023/01/30 05:20:44;;;;;;;10.97;5.07;;;5.10;89.00;;;;;;4981127;28;20205;-78
2023/01/30 05:23:12;;;;;;;15.07;6.93;;;5.10;89.10;;;;;;4989232;28;20449;-78
2023/01/30 05:25:40;;;;;;;14.60;5.67;;;5.10;89.30;;;;;;4984442;28;20728;-78
2023/01/30 05:28:09;;;;;;;12.93;5.77;;;5.10;89.20;;;;;;4989619;28;20234;-78
2023/01/30 05:30:37;;;;;;;13.53;5.77;;;5.10;89.10;;;;;;4979439;28;20271;-78
2023/01/30 05:33:07;;;;;;;12.13;6.17;;;5.10;89.00;;;;;;4986967;28;20200;-78
2023/01/30 05:35:35;;;;;;;12.13;6.47;;;5.10;89.00;;;;;;4981285;28;20475;-78
2023/01/30 05:38:04;;;;;;;11.43;6.40;;;5.10;89.60;;;;;;4985671;28;20198;-79
2023/01/30 05:40:32;;;;;;;13.97;5.50;;;5.10;89.70;;;;;;4982085;28;20222;-78
2023/01/30 05:43:00;;;;;;;15.63;6.03;;;5.10;89.70;;;;;;4980398;28;20229;-79
2023/01/30 05:45:29;;;;;;;14.73;6.57;;;5.10;89.70;;;;;;4984767;28;20202;-78
2023/01/30 05:47:57;;;;;;;18.23;6.00;;;5.20;89.80;;;;;;4988521;28;20314;-81
2023/01/30 05:50:31;;;;;;;14.93;5.80;;;5.20;89.70;;;;;;4985710;28;20240;-79
2023/01/30 05:52:59;;;;;;;10.17;4.80;;;5.20;89.70;;;;;;4984953;28;22170;-79
2023/01/30 05:55:27;;;;;;;11.87;5.73;;;5.20;89.70;;;;;;4989349;28;20233;-79
2023/01/30 05:57:56;;;;;;;14.97;6.10;;;5.20;89.70;;;;;;4988407;28;20271;-80
2023/01/30 06:00:24;;;;;;;12.70;5.87;;;5.20;89.70;;;;;;4984884;28;20228;-79
2023/01/30 06:02:52;;;;;;;11.67;5.90;;;5.20;89.80;;;;;;4986595;28;20201;-77
2023/01/30 06:05:21;;;;;;;16.80;6.03;;;5.20;89.80;;;;;;4992163;28;20201;-77
2023/01/30 06:07:51;;;;;;;12.63;5.67;;;5.30;89.90;;;;;;4991803;28;20204;-80
2023/01/30 06:10:19;;;;;;;15.67;6.00;;;5.30;89.90;;;;;;4988961;28;20316;-77
2023/01/30 06:12:47;;;;;;;14.87;4.83;;;5.40;90.00;;;;;;4983652;28;20209;-80
2023/01/30 06:15:16;;;;;;;13.67;6.37;;;5.40;90.00;;;;;;4990231;28;20666;-78
2023/01/30 06:17:44;;;;;;;12.23;5.07;;;5.40;89.80;;;;;;4988019;28;20197;-76
2023/01/30 06:20:16;;;;;;;14.83;6.97;;;5.40;89.70;;;;;;4987409;28;20228;-78
2023/01/30 06:22:45;;;;;;;14.77;5.87;;;5.40;89.80;;;;;;4984914;28;20227;-79
2023/01/30 06:25:15;;;;;;;12.50;6.00;;;5.40;89.70;;;;;;4987965;28;20200;-77
2023/01/30 06:27:45;;;;;;;11.63;5.10;;;5.40;89.70;;;;;;4985063;28;20193;-77
2023/01/30 06:30:14;;;;;;;16.17;7.25;;;5.50;89.80;;;;;;4983901;28;20454;-77
2023/01/30 06:32:42;;;;;;;16.53;5.83;;;5.50;90.00;;;;;;4981176;28;20715;-77
2023/01/30 06:35:11;;;;;;;12.47;5.10;;;5.50;90.00;;;;;;4988324;28;20200;-77
2023/01/30 06:37:39;;;;;;;13.57;5.80;;;5.60;90.00;;;;;;4982362;28;20208;-78
2023/01/30 06:40:09;;;;;;;15.80;5.90;;;5.60;90.00;;;;;;4977982;28;20276;-79
2023/01/30 06:42:39;;;;;;;14.27;5.50;;;5.60;89.90;;;;;;4987280;28;20872;-77
2023/01/30 06:45:11;;;;;;;12.80;5.67;;;5.70;89.70;;;;;;4980337;28;20530;-79
2023/01/30 06:47:45;;;;;;;12.27;5.73;;;5.70;89.60;;;;;;4972679;28;20230;-79
2023/01/30 06:50:15;;;;;;;12.83;6.17;;;5.70;89.40;;;;;;4985946;28;20219;-78
2023/01/30 06:52:44;;;;;;;13.83;6.47;;;5.80;89.30;;;;;;4990179;28;20203;-78
2023/01/30 06:55:14;;;;;;;14.53;6.63;;;5.80;89.30;;;;;;4986423;28;20315;-78
2023/01/30 06:57:45;;;;;;;15.50;7.43;;;5.80;89.30;;;;;;4977494;28;20492;-77
2023/01/30 07:00:16;;;;;;;14.80;5.93;;;5.90;89.30;;;;;;4984660;28;20766;-77
2023/01/30 07:02:45;;;;;;;12.33;5.93;;;5.90;89.30;;;;;;4981890;28;20210;-79
2023/01/30 07:05:14;;;;;;;11.90;5.90;;;6.00;89.10;;;;;;4983749;28;20215;-78
2023/01/30 07:07:43;;;;;;;14.40;7.43;;;6.00;89.10;;;;;;4983683;28;20441;-77
2023/01/30 07:10:12;;;;;;;15.63;6.77;;;6.10;89.40;;;;;;4986889;28;20258;-77
2023/01/30 07:12:40;;;;;;;12.03;6.13;;;6.10;89.40;;;;;;4986572;28;20717;-78
2023/01/30 07:15:11;;;;;;;12.13;6.00;;;6.10;89.10;;;;;;4988610;28;20262;-79
2023/01/30 07:17:40;;;;;;;14.77;7.13;;;6.20;89.70;;;;;;4975012;28;20220;-79
2023/01/30 07:20:11;;;;;;;14.40;6.67;;;6.20;88.70;;;;;;4983056;28;20205;-79
2023/01/30 07:22:39;;;;;;;11.87;5.67;;;6.20;88.40;;;;;;4990392;28;20189;-80
2023/01/30 07:25:08;;;;;;;16.90;5.90;;;6.20;88.30;;;;;;4990160;28;20199;-80
2023/01/30 07:27:36;;;;;;;12.03;5.33;;;6.30;88.10;;;;;;4986036;28;20559;-81
2023/01/30 07:30:06;;;;;;;15.00;6.50;;;6.30;88.10;;;;;;4985268;28;20203;-80
2023/01/30 07:32:36;;;;;;;10.43;5.17;;;6.30;87.90;;;;;;4981270;28;20267;-82
2023/01/30 07:35:04;;;;;;;12.23;5.23;;;6.30;87.70;;;;;;4981319;28;20677;-82
2023/01/30 07:37:33;;;;;;;13.20;6.60;;;6.30;87.60;;;;;;4987952;28;20226;-81
2023/01/30 07:40:01;;;;;;;14.57;6.40;;;6.40;87.60;;;;;;4978897;28;20207;-81
2023/01/30 07:42:29;;;;;;;12.83;6.57;;;6.40;87.50;;;;;;4987104;28;20726;-81
2023/01/30 07:44:58;;;;;;;13.57;6.27;;;6.40;87.20;;;;;;4980058;28;20655;-80
2023/01/30 07:47:26;;;;;;;13.53;6.03;;;6.50;87.20;;;;;;4974649;28;20211;-81
2023/01/30 07:49:56;;;;;;;12.30;6.20;;;6.50;86.90;;;;;;4980661;28;20204;-80
2023/01/30 07:52:25;;;;;;;11.40;5.47;;;6.60;86.80;;;;;;4947962;28;20278;-80
2023/01/30 07:54:53;;;;;;;12.53;6.77;;;6.60;86.60;;;;;;4989750;28;20677;-81
2023/01/30 07:57:21;;;;;;;13.23;6.83;;;6.60;86.20;;;;;;4982200;28;20675;-79
2023/01/30 07:59:50;;;;;;;10.40;5.73;;;6.70;86.30;;;;;;4983540;28;20203;-80
2023/01/30 08:02:18;;;;;;;12.03;5.60;;;6.70;86.30;;;;;;4982086;28;20200;-80
2023/01/30 08:04:46;;;;;;;9.83;5.27;;;6.80;86.30;;;;;;4984590;28;20580;-79
2023/01/30 08:07:16;;;;;;;9.67;4.63;;;6.80;86.00;;;;;;4975755;28;20219;-80
2023/01/30 08:09:44;;;;;;;11.97;5.27;;;6.90;85.90;;;;;;4989638;28;20282;-80
2023/01/30 08:12:13;;;;;;;11.07;4.30;;;6.90;85.80;;;;;;4988985;28;20639;-79
2023/01/30 08:14:41;;;;;;;8.57;4.20;;;7.00;85.60;;;;;;4978898;28;20201;-80
2023/01/30 08:17:10;;;;;;;10.43;5.00;;;7.00;85.20;;;;;;4987472;28;20208;-80
2023/01/30 08:19:38;;;;;;;9.97;4.60;;;7.10;84.80;;;;;;4988828;28;20254;-80
2023/01/30 08:22:07;;;;;;;11.17;5.43;;;7.10;84.70;;;;;;4988208;28;20282;-80
2023/01/30 08:24:37;;;;;;;12.03;5.40;;;7.10;83.90;;;;;;4987316;28;20201;-79
2023/01/30 08:27:05;;;;;;;10.73;5.30;;;7.20;84.10;;;;;;5002382;28;20272;-80
2023/01/30 08:29:33;;;;;;;10.30;4.70;;;7.20;84.20;;;;;;4984292;28;20254;-79
2023/01/30 08:32:02;;;;;;;10.07;4.50;;;7.30;84.10;;;;;;4986843;28;20693;-81
2023/01/30 08:34:30;;;;;;;11.37;4.97;;;7.40;84.80;;;;;;4993224;28;20228;-80
2023/01/30 08:36:59;;;;;;;10.87;4.37;;;7.40;83.10;;;;;;4986795;28;20201;-81
2023/01/30 08:39:27;;;;;;;8.90;4.37;;;7.40;82.70;;;;;;4979685;28;20235;-79
2023/01/30 08:41:57;;;;;;;10.83;4.97;;;7.40;81.60;;;;;;4988106;28;20222;-80
2023/01/30 08:44:25;;;;;;;10.70;5.27;;;7.40;82.20;;;;;;4989196;28;20212;-80
2023/01/30 08:46:54;;;;;;;9.67;4.60;;;7.40;82.10;;;;;;4987987;28;20608;-80
2023/01/30 08:49:22;;;;;;;10.37;4.60;;;7.40;81.10;;;;;;4978173;28;20226;-78
2023/01/30 08:51:50;;;;;;;10.47;4.57;;;7.50;81.10;;;;;;4988526;28;20228;-79
2023/01/30 08:54:19;;;;;;;12.47;5.43;;;7.50;81.50;;;;;;4987254;28;20205;-79
2023/01/30 08:56:47;;;;;;;10.33;5.40;;;7.60;81.60;;;;;;4983924;28;20295;-79
2023/01/30 08:59:17;;;;;;;12.63;5.10;;;7.60;81.40;;;;;;4990999;28;20200;-83
2023/01/30 09:01:45;;;;;;;9.70;5.03;;;7.70;81.30;;;;;;4986643;28;20201;-80
2023/01/30 09:04:13;;;;;;;10.37;5.67;;;7.70;80.50;;;;;;4990738;28;20259;-80
2023/01/30 09:06:42;;;;;;;11.23;4.50;;;7.70;80.90;;;;;;4986050;28;20732;-78
2023/01/30 09:09:10;;;;;;;9.77;5.03;;;7.70;80.90;;;;;;4980587;28;20228;-78
2023/01/30 09:11:39;;;;;;;11.27;5.60;;;7.80;80.70;;;;;;4990823;28;20746;-78
2023/01/30 09:14:07;;;;;;;10.60;5.00;;;7.80;80.80;;;;;;4989716;28;20267;-78
2023/01/30 09:16:36;;;;;;;8.97;5.17;;;7.80;80.90;;;;;;4982470;28;20663;-77
2023/01/30 09:19:05;;;;;;;16.33;7.80;;;7.90;81.20;;;;;;4984333;28;20208;-77
2023/01/30 09:21:33;;;;;;;15.37;7.80;;;7.90;80.90;;;;;;4982456;28;20196;-79
2023/01/30 09:24:02;;;;;;;13.93;7.53;;;7.90;79.90;;;;;;4983724;28;20201;-78
2023/01/30 09:26:30;;;;;;;16.00;8.00;;;7.90;80.50;;;;;;4989531;28;20252;-78
2023/01/30 09:28:58;;;;;;;15.90;6.90;;;7.90;80.30;;;;;;4986290;28;20198;-80
2023/01/30 09:31:27;;;;;;;12.87;6.00;;;8.00;80.80;;;;;;4989271;28;20550;-79
2023/01/30 09:33:57;;;;;;;11.93;6.40;;;8.10;80.50;;;;;;4987341;28;20200;-78
2023/01/30 09:36:25;;;;;;;13.60;6.60;;;8.10;80.20;;;;;;4992247;28;20245;-80
2023/01/30 09:38:53;;;;;;;16.60;7.53;;;8.10;80.20;;;;;;4991039;28;20193;-78
2023/01/30 09:41:46;;;;;;;15.77;7.57;;;8.20;80.50;;;;;;4988500;28;20267;-78
2023/01/30 09:44:41;;;;;;;14.63;7.40;;;8.20;80.30;;;;;;4988474;28;20197;-78
2023/01/30 09:47:12;;;;;;;16.23;7.37;;;8.20;80.10;;;;;;4978800;28;20255;-80
2023/01/30 09:49:54;;;;;;;13.07;6.33;;;8.20;79.70;;;;;;4978513;28;20439;-78
2023/01/30 09:52:37;;;;;;;11.83;5.77;;;8.20;79.10;;;;;;4983961;28;20212;-79
2023/01/30 09:55:19;;;;;;;13.87;6.43;;;8.20;79.20;;;;;;4985715;28;20194;-80
2023/01/30 09:57:48;;;;;;;12.30;6.20;;;8.20;79.10;;;;;;4988681;28;20210;-80
2023/01/30 10:00:24;;;;;;;14.00;6.53;;;8.20;79.50;;;;;;4986592;28;20212;-81
2023/01/30 10:03:00;;;;;;;11.83;6.77;;;8.30;79.40;;;;;;4983574;28;20198;-79
2023/01/30 10:05:38;;;;;;;12.67;5.90;;;8.30;79.20;;;;;;4975839;28;20204;-78
2023/01/30 10:08:32;;;;;;;12.60;6.40;;;8.30;79.40;;;;;;4973362;28;20188;-79
2023/01/30 10:11:09;;;;;;;12.93;6.83;;;8.40;79.70;;;;;;4973605;28;20204;-78
2023/01/30 10:14:29;;;;;;;12.73;5.57;;;8.40;79.40;;;;;;4982981;28;20217;-78
2023/01/30 10:17:07;;;;;;;11.50;5.87;;;8.50;78.30;;;;;;4939972;28;20230;-78
2023/01/30 10:19:55;;;;;;;11.93;5.63;;;8.40;77.80;;;;;;4948870;29;20641;-78
2023/01/30 10:22:37;;;;;;;11.03;5.77;;;8.40;77.60;;;;;;4980553;28;20198;-79
2023/01/30 10:25:20;;;;;;;11.53;5.83;;;8.40;77.60;;;;;;4983958;28;20198;-78
2023/01/30 10:27:54;;;;;;;10.93;5.37;;;8.50;77.30;;;;;;4986466;28;20193;-79
2023/01/30 10:30:22;;;;;;;10.57;5.83;;;8.50;77.60;;;;;;4989261;28;20665;-78
2023/01/30 10:32:55;;;;;;;13.52;6.75;;;8.50;77.30;;;;;;4989980;28;20451;-80
2023/01/30 10:35:27;;;;;;;12.13;5.50;;;8.50;77.60;;;;;;4984715;28;20204;-78
2023/01/30 10:38:04;;;;;;;12.03;5.63;;;8.60;77.80;;;;;;4992925;28;20201;-77
2023/01/30 10:40:39;;;;;;;11.53;6.23;;;8.60;77.60;;;;;;4974692;28;20670;-78
2023/01/30 10:43:19;;;;;;;12.50;6.33;;;8.60;77.30;;;;;;4984040;28;20709;-77
2023/01/30 10:45:56;;;;;;;15.13;6.93;;;8.60;77.20;;;;;;4984403;28;20205;-77
2023/01/30 10:48:44;;;;;;;13.57;6.53;;;8.50;76.80;;;;;;4983121;28;20316;-77
2023/01/30 10:51:23;;;;;;;12.40;5.90;;;8.50;75.80;;;;;;4985010;28;20220;-78
2023/01/30 10:53:59;;;;;;;10.37;5.53;;;8.40;75.50;;;;;;4985844;28;20565;-78
2023/01/30 10:56:36;;;;;;;14.80;6.67;;;8.40;75.70;;;;;;4977058;28;20322;-78
2023/01/30 10:59:16;;;;;;;12.13;5.90;;;8.50;75.80;;;;;;4983702;28;20220;-77
2023/01/30 11:01:47;;;;;;;14.00;5.80;;;8.60;76.40;;;;;;4983404;28;20654;-78
2023/01/30 11:04:25;;;;;;;11.77;5.30;;;8.70;76.60;;;;;;4982695;28;20197;-79
2023/01/30 11:06:55;;;;;;;11.27;5.87;;;8.80;75.80;;;;;;4990852;28;20193;-77
2023/01/30 11:09:37;;;;;;;14.80;6.70;;;8.70;75.10;;;;;;4989138;28;20205;-79
2023/01/30 11:12:06;;;;;;;14.67;6.70;;;8.60;75.10;;;;;;4985351;28;20244;-77
2023/01/30 11:14:53;;;;;;;14.73;6.80;;;8.70;76.10;;;;;;4981230;28;20201;-80
2023/01/30 11:17:29;;;;;;;11.63;5.97;;;8.60;75.70;;;;;;4982673;28;20268;-78
2023/01/30 11:20:03;;;;;;;17.40;7.30;;;8.60;76.30;;;;;;4986418;28;20193;-76
2023/01/30 11:22:33;;;;;;;17.35;8.75;;;8.60;75.80;;;;;;4973403;28;21746;-77
2023/01/30 11:25:06;;;;;;;15.53;7.47;;;8.50;76.00;;;;;;4981634;28;20205;-78
2023/01/30 11:27:56;;;;;;;13.97;6.93;;;8.60;76.60;;;;;;4992694;28;20564;-79
2023/01/30 11:30:28;;;;;;;16.77;7.70;;;8.50;76.30;;;;;;4983590;28;20321;-78
2023/01/30 11:33:11;;;;;;;17.98;7.90;;;8.50;76.00;;;;;;4979183;28;20469;-78
2023/01/30 11:35:45;;;;;;;14.10;6.93;;;8.50;76.10;;;;;;4981205;28;20220;-78
2023/01/30 11:38:22;;;;;;;17.40;8.23;;;8.40;76.90;;;;;;4985899;28;20299;-77
2023/01/30 11:41:03;;;;;;;17.63;8.67;;;8.40;76.40;;;;;;4992700;28;20228;-78
2023/01/30 11:43:33;;;;;;;19.20;8.43;;;8.30;75.90;;;;;;4981259;28;20189;-80
2023/01/30 11:46:02;;;;;;;19.33;8.83;;;8.40;76.40;;;;;;4985583;28;20197;-80
2023/01/30 11:48:40;;;;;;;17.83;8.23;;;8.50;77.00;;;;;;4980627;28;20193;-76
2023/01/30 11:51:28;;;;;;;17.47;7.97;;;8.50;77.10;;;;;;4975921;28;20213;-77
2023/01/30 11:54:00;;;;;;;20.33;8.60;;;8.60;77.40;;;;;;4989001;28;20294;-78
2023/01/30 11:56:34;;;;;;;18.52;9.35;;;8.60;77.20;;;;;;4983118;28;20413;-77
2023/01/30 11:59:05;;;;;;;16.13;8.20;;;8.70;77.20;;;;;;4978131;28;20201;-76
2023/01/30 12:01:35;;;;;;;17.53;8.23;;;8.80;76.10;;;;;;4979171;28;20627;-78
2023/01/30 12:04:09;;;;;;;18.63;8.93;;;8.80;75.90;;;;;;4977672;28;20546;-77
2023/01/30 12:06:39;;;;;;;18.97;8.30;;;8.90;76.60;;;;;;4974976;28;20214;-77
2023/01/30 12:09:31;;;;;;;15.97;7.93;;;9.00;76.40;;;;;;4982889;28;20467;-77
2023/01/30 12:12:02;;;;;;;20.30;8.83;;;8.90;76.00;;;;;;4985116;28;20204;-76
2023/01/30 12:14:40;;;;;;;22.03;9.17;;;8.80;75.60;;;;;;4989173;28;20240;-77
2023/01/30 12:17:20;;;;;;;16.53;7.70;;;8.90;76.10;;;;;;4981262;28;20192;-77
2023/01/30 12:19:58;;;;;;;15.57;8.20;;;8.90;76.20;;;;;;4983043;28;20193;-77
2023/01/30 12:22:35;;;;;;;19.43;9.10;;;9.00;76.30;;;;;;4988233;28;20557;-77
2023/01/30 12:25:14;;;;;;;16.80;9.30;;;9.00;75.80;;;;;;4989021;28;20243;-78
2023/01/30 12:27:55;;;;;;;16.50;7.90;;;9.20;77.30;;;;;;4991419;28;20634;-77
2023/01/30 12:30:31;;;;;;;15.17;8.33;;;9.20;75.50;;;;;;4985640;28;20285;-76
2023/01/30 12:33:02;;;;;;;18.30;8.57;;;9.10;75.80;;;;;;4983259;28;20670;-76
2023/01/30 12:35:44;;;;;;;16.00;7.07;;;9.00;75.80;;;;;;4985144;28;20192;-76
2023/01/30 12:38:33;;;;;;;16.03;7.30;;;9.10;76.10;;;;;;4979907;28;20669;-76
2023/01/30 12:41:18;;;;;;;11.03;6.30;;;9.10;76.00;;;;;;4975793;28;20197;-77
2023/01/30 12:44:03;;;;;;;14.83;7.67;;;9.20;76.50;;;;;;4985971;28;20229;-76
2023/01/30 12:46:46;;;;;;;16.17;7.63;;;9.20;76.30;;;;;;4980852;28;20270;-76
2023/01/30 12:49:44;;;;;;;17.30;6.97;;;9.20;76.30;;;;;;4983522;28;20197;-76
2023/01/30 12:52:30;;;;;;;15.43;8.23;;;9.10;76.50;;;;;;4987166;28;20538;-76
2023/01/30 12:55:05;;;;;;;16.53;8.07;;;9.00;76.70;;;;;;4981917;28;20213;-77
2023/01/30 12:57:43;;;;;;;16.97;8.00;;;9.00;76.10;;;;;;4981903;28;20224;-76
2023/01/30 13:00:29;;;;;;;16.97;7.90;;;9.10;76.20;;;;;;4978719;28;20197;-77
2023/01/30 13:03:18;;;;;;;16.07;7.83;;;9.00;76.10;;;;;;4973344;28;20209;-77
2023/01/30 13:05:55;;;;;;;16.03;7.70;;;9.10;76.40;;;;;;4978290;28;20209;-77
2023/01/30 13:08:37;;;;;;;15.40;7.40;;;9.10;76.10;;;;;;4976280;28;20203;-78
2023/01/30 13:11:20;;;;;;;14.17;7.27;;;9.20;76.70;;;;;;4972748;28;20291;-79
2023/01/30 13:13:54;;;;;;;14.70;7.03;;;9.40;76.70;;;;;;4985640;28;20209;-77
2023/01/30 13:16:32;;;;;;;15.70;7.60;;;9.60;75.70;;;;;;4984038;28;20197;-79
2023/01/30 13:19:06;;;;;;;14.43;7.07;;;10.00;76.50;;;;;;4988241;28;20255;-78
2023/01/30 13:21:42;;;;;;;14.03;7.70;;;10.20;75.40;;;;;;4982094;28;20193;-78
2023/01/30 13:24:21;;;;;;;14.70;6.67;;;10.20;74.00;;;;;;4983642;28;20211;-79